Time;durP1;ratioP1;P1;durP2;ratioP2;P2;SDS_P1;SDS_P2;PMS_P1;PMS_P2;Temp;Humidity;BMP_temperature;BMP_pressure;BME280_temperature;BME280_humidity;BME280_pressure;Samples;Min_cycle;Max_cycle;Signal;HPM_P1;HPM_P2
2023/05/21 00:02:10;;;;;;;14.18;9.77;;;14.40;99.90;;;;;;5056006;28;20029;-80
2023/05/21 00:04:39;;;;;;;12.98;10.55;;;14.50;99.90;;;;;;5038135;28;20382;-80
2023/05/21 00:07:08;;;;;;;16.58;10.07;;;14.50;99.90;;;;;;5038037;28;20098;-80
2023/05/21 00:09:35;;;;;;;11.35;9.43;;;14.50;99.90;;;;;;5055860;28;20063;-80
2023/05/21 00:12:00;;;;;;;13.30;9.68;;;14.50;99.90;;;;;;5055708;28;20025;-77
2023/05/21 00:14:26;;;;;;;13.95;10.60;;;14.60;99.90;;;;;;5037740;28;20021;-80
2023/05/21 00:16:51;;;;;;;16.73;11.93;;;14.60;99.90;;;;;;5055738;28;20025;-77
2023/05/21 00:19:17;;;;;;;15.70;10.07;;;14.60;99.90;;;;;;5055590;28;20554;-81
2023/05/21 00:21:44;;;;;;;11.57;9.65;;;14.60;99.90;;;;;;5037719;28;20458;-80
2023/05/21 00:24:10;;;;;;;12.50;9.70;;;14.60;99.90;;;;;;5055548;28;20021;-80
2023/05/21 00:26:36;;;;;;;15.30;9.32;;;14.60;99.90;;;;;;5037525;28;20056;-77
2023/05/21 00:29:01;;;;;;;11.75;9.80;;;14.60;99.90;;;;;;5055376;28;20058;-80
2023/05/21 00:31:27;;;;;;;13.27;10.05;;;14.60;99.90;;;;;;5037489;28;20429;-77
2023/05/21 00:33:53;;;;;;;12.80;10.00;;;14.60;99.90;;;;;;5055569;28;20469;-81
2023/05/21 00:36:22;;;;;;;12.57;10.20;;;14.60;99.90;;;;;;5037685;28;20017;-80
2023/05/21 00:38:51;;;;;;;14.23;10.40;;;14.60;99.90;;;;;;5054930;28;20459;-77
2023/05/21 00:41:18;;;;;;;11.88;9.48;;;14.70;99.90;;;;;;5037395;28;20021;-77
2023/05/21 00:43:44;;;;;;;13.73;10.25;;;14.70;99.90;;;;;;5037280;28;20024;-80
2023/05/21 00:46:15;;;;;;;12.70;9.50;;;14.70;99.90;;;;;;5070414;28;20028;-80
2023/05/21 00:48:42;;;;;;;14.18;10.50;;;14.70;99.90;;;;;;5070571;28;20060;-80
2023/05/21 00:51:07;;;;;;;14.23;11.15;;;14.70;99.90;;;;;;5055058;28;20382;-77
2023/05/21 00:53:34;;;;;;;16.08;10.45;;;14.80;99.90;;;;;;5054864;28;20021;-81
2023/05/21 00:56:00;;;;;;;13.43;9.70;;;14.80;99.90;;;;;;5054899;28;20020;-81
2023/05/21 00:58:27;;;;;;;13.88;9.95;;;14.80;99.90;;;;;;5036888;28;20035;-81
2023/05/21 01:00:56;;;;;;;13.07;9.02;;;14.80;99.90;;;;;;5036840;28;20044;-81
2023/05/21 01:03:22;;;;;;;11.65;9.52;;;14.80;99.90;;;;;;5036750;28;20021;-81
2023/05/21 01:05:52;;;;;;;12.60;10.20;;;14.80;99.90;;;;;;5054749;28;20398;-77
2023/05/21 01:08:20;;;;;;;15.57;10.45;;;14.80;99.90;;;;;;5036912;28;20047;-80
2023/05/21 01:10:47;;;;;;;11.75;9.80;;;14.80;99.90;;;;;;5037059;28;20025;-80
2023/05/21 01:13:15;;;;;;;14.82;9.40;;;14.80;99.90;;;;;;5036665;28;20036;-80
2023/05/21 01:15:42;;;;;;;14.68;10.18;;;14.80;99.90;;;;;;5054689;28;20514;-77
2023/05/21 01:18:08;;;;;;;10.50;8.93;;;14.80;99.90;;;;;;5054396;28;20049;-77
2023/05/21 01:20:34;;;;;;;15.68;10.13;;;14.80;99.90;;;;;;5036578;28;20048;-77
2023/05/21 01:23:00;;;;;;;12.40;9.77;;;14.80;99.90;;;;;;5054451;28;20017;-81
2023/05/21 01:25:26;;;;;;;14.45;10.63;;;14.80;99.90;;;;;;5054333;28;20029;-77
2023/05/21 01:27:51;;;;;;;11.50;10.13;;;14.70;99.90;;;;;;5036276;28;20039;-77
2023/05/21 01:30:20;;;;;;;11.02;9.82;;;14.70;99.90;;;;;;5054220;28;20021;-77
2023/05/21 01:33:02;;;;;;;14.18;9.95;;;14.70;99.90;;;;;;5054158;28;20032;-77
2023/05/21 01:35:42;;;;;;;11.88;9.55;;;14.70;99.90;;;;;;5054201;28;20021;-80
2023/05/21 01:38:18;;;;;;;11.32;9.25;;;14.70;99.90;;;;;;5054508;28;20532;-77
2023/05/21 01:40:59;;;;;;;15.75;9.77;;;14.70;99.90;;;;;;5054249;28;20120;-77
2023/05/21 01:43:28;;;;;;;12.93;10.95;;;14.70;99.90;;;;;;5054164;28;20163;-80
2023/05/21 01:45:56;;;;;;;14.98;9.27;;;14.60;99.90;;;;;;5069533;28;20021;-78
2023/05/21 01:48:24;;;;;;;13.57;9.00;;;14.70;99.90;;;;;;5036104;28;20021;-81
2023/05/21 01:50:51;;;;;;;11.40;9.68;;;14.70;99.90;;;;;;5053241;28;20024;-76
2023/05/21 01:53:17;;;;;;;11.90;8.45;;;14.70;99.90;;;;;;5035902;28;20028;-80
2023/05/21 01:55:43;;;;;;;14.10;9.82;;;14.70;99.90;;;;;;5036046;28;20028;-80
2023/05/21 01:58:09;;;;;;;10.38;8.98;;;14.70;99.90;;;;;;5035816;28;20032;-80
2023/05/21 02:00:36;;;;;;;13.90;9.23;;;14.70;99.90;;;;;;5053696;28;20033;-76
2023/05/21 02:03:01;;;;;;;14.85;8.93;;;14.70;99.90;;;;;;5053691;28;20478;-81
2023/05/21 02:05:27;;;;;;;11.48;9.43;;;14.70;99.90;;;;;;5053928;28;20071;-77
2023/05/21 02:07:53;;;;;;;12.52;9.65;;;14.70;99.90;;;;;;5035733;28;20035;-80
2023/05/21 02:10:19;;;;;;;11.32;9.02;;;14.70;99.90;;;;;;5069235;28;20124;-80
2023/05/21 02:12:45;;;;;;;12.90;9.25;;;14.70;99.90;;;;;;5053542;28;20056;-81
2023/05/21 02:15:10;;;;;;;11.43;8.80;;;14.70;99.90;;;;;;5053623;28;20103;-81
2023/05/21 02:17:37;;;;;;;11.63;9.13;;;14.70;99.90;;;;;;5035327;28;20119;-77
2023/05/21 02:20:10;;;;;;;11.95;9.25;;;14.70;99.90;;;;;;5053319;28;20436;-77
2023/05/21 02:22:46;;;;;;;11.18;8.02;;;14.80;99.90;;;;;;5053377;28;20017;-80
2023/05/21 02:25:14;;;;;;;10.80;8.95;;;14.70;99.90;;;;;;5035371;28;20048;-77
2023/05/21 02:27:41;;;;;;;11.00;8.63;;;14.70;99.90;;;;;;5035393;28;20021;-80
2023/05/21 02:30:09;;;;;;;14.10;9.18;;;14.70;99.90;;;;;;5053302;28;20025;-80
2023/05/21 02:32:34;;;;;;;14.30;9.15;;;14.70;99.90;;;;;;5035317;28;20497;-80
2023/05/21 02:35:02;;;;;;;11.05;8.02;;;14.70;99.90;;;;;;5053269;28;20029;-76
2023/05/21 02:37:29;;;;;;;12.88;8.25;;;14.60;99.90;;;;;;5053156;28;20363;-80
2023/05/21 02:39:54;;;;;;;12.05;9.13;;;14.60;99.90;;;;;;5052959;28;20083;-80
2023/05/21 02:42:23;;;;;;;11.18;9.45;;;14.60;99.90;;;;;;5035162;28;20417;-80
2023/05/21 02:44:50;;;;;;;12.63;8.68;;;14.60;99.90;;;;;;5035580;28;20028;-77
2023/05/21 02:47:16;;;;;;;16.60;9.43;;;14.50;99.90;;;;;;5053269;28;20017;-80
2023/05/21 02:49:42;;;;;;;12.23;8.15;;;14.50;99.90;;;;;;5053265;28;20108;-76
2023/05/21 02:52:07;;;;;;;14.95;8.95;;;14.50;99.90;;;;;;5053255;28;20056;-80
2023/05/21 02:54:33;;;;;;;11.30;8.65;;;14.50;99.90;;;;;;5053094;28;20078;-76
2023/05/21 02:56:58;;;;;;;9.50;8.05;;;14.40;99.90;;;;;;5052996;28;20025;-77
2023/05/21 02:59:24;;;;;;;9.75;7.43;;;14.40;99.90;;;;;;5034999;28;20445;-77
2023/05/21 03:01:50;;;;;;;14.52;8.13;;;14.40;99.90;;;;;;5035664;28;20104;-76
2023/05/21 03:04:16;;;;;;;12.23;8.55;;;14.40;99.90;;;;;;5056929;28;20021;-76
2023/05/21 03:06:42;;;;;;;14.52;8.82;;;14.40;99.90;;;;;;5039055;28;20037;-80
2023/05/21 03:09:07;;;;;;;10.90;7.95;;;14.40;99.90;;;;;;5056799;28;20060;-80
2023/05/21 03:11:33;;;;;;;10.80;7.90;;;14.40;99.90;;;;;;5038856;28;20017;-76
2023/05/21 03:13:59;;;;;;;11.18;8.75;;;14.40;99.90;;;;;;5056991;28;20463;-76
2023/05/21 03:16:24;;;;;;;12.73;8.63;;;14.40;99.90;;;;;;5038985;28;20025;-76
2023/05/21 03:18:50;;;;;;;11.50;7.10;;;14.40;99.90;;;;;;5038917;28;20056;-79
2023/05/21 03:21:16;;;;;;;10.57;7.95;;;14.40;99.90;;;;;;5056600;28;20394;-76
2023/05/21 03:23:42;;;;;;;10.02;7.40;;;14.40;99.90;;;;;;5039015;28;20063;-80
2023/05/21 03:26:07;;;;;;;11.00;7.90;;;14.40;99.90;;;;;;5056687;28;20410;-80
2023/05/21 03:28:34;;;;;;;10.90;8.30;;;14.40;99.90;;;;;;5038728;28;20067;-76
2023/05/21 03:31:00;;;;;;;12.00;7.70;;;14.40;99.90;;;;;;5056557;28;20029;-76
2023/05/21 03:33:25;;;;;;;11.38;7.65;;;14.30;99.90;;;;;;5042086;28;20029;-77
2023/05/21 03:35:51;;;;;;;9.52;6.82;;;14.40;99.90;;;;;;5018918;28;20032;-77
2023/05/21 03:38:17;;;;;;;8.77;7.80;;;14.30;99.90;;;;;;5018652;28;20021;-77
2023/05/21 03:40:42;;;;;;;9.00;6.70;;;14.30;99.90;;;;;;5018657;28;20466;-77
2023/05/21 03:43:08;;;;;;;10.10;7.07;;;14.30;99.90;;;;;;5036362;28;20040;-81
2023/05/21 03:45:34;;;;;;;9.55;7.55;;;14.40;99.90;;;;;;5036342;28;20047;-81
2023/05/21 03:48:00;;;;;;;8.57;7.10;;;14.40;99.90;;;;;;5036356;28;20033;-81
2023/05/21 03:50:26;;;;;;;8.80;7.13;;;14.40;99.90;;;;;;5018467;28;20021;-80
2023/05/21 03:52:52;;;;;;;9.20;6.82;;;14.30;99.90;;;;;;5018958;28;20545;-80
2023/05/21 03:55:17;;;;;;;9.15;6.05;;;14.40;99.90;;;;;;5036404;28;20024;-81
2023/05/21 03:57:43;;;;;;;8.13;5.95;;;14.40;99.90;;;;;;5036325;28;20071;-78
2023/05/21 04:00:09;;;;;;;7.95;5.95;;;14.40;99.90;;;;;;5018390;28;20029;-77
2023/05/21 04:02:34;;;;;;;9.27;6.13;;;14.40;99.90;;;;;;5018357;28;20075;-81
2023/05/21 04:05:00;;;;;;;9.20;6.22;;;14.40;99.90;;;;;;5036147;28;20025;-81
2023/05/21 04:07:26;;;;;;;8.95;6.38;;;14.40;99.90;;;;;;5035964;28;20376;-81
2023/05/21 04:09:52;;;;;;;7.60;6.57;;;14.40;99.90;;;;;;5035960;28;20486;-81
2023/05/21 04:12:18;;;;;;;11.65;6.80;;;14.40;99.90;;;;;;5018037;28;20017;-78
2023/05/21 04:14:46;;;;;;;8.95;6.75;;;14.40;99.90;;;;;;5035072;28;20022;-77
2023/05/21 04:17:11;;;;;;;8.77;5.88;;;14.40;99.90;;;;;;5018051;28;20021;-78
2023/05/21 04:19:37;;;;;;;8.90;6.28;;;14.40;99.90;;;;;;5035484;28;20518;-77
2023/05/21 04:22:03;;;;;;;11.48;5.47;;;14.40;99.90;;;;;;5035821;28;20028;-77
2023/05/21 04:24:30;;;;;;;6.03;5.20;;;14.50;99.90;;;;;;5035879;28;20100;-81
2023/05/21 04:26:59;;;;;;;10.13;5.50;;;14.50;99.90;;;;;;5035661;28;20045;-77
2023/05/21 04:29:30;;;;;;;7.07;5.60;;;14.60;99.90;;;;;;5035894;28;20021;-77
2023/05/21 04:31:55;;;;;;;8.02;5.95;;;14.60;99.90;;;;;;5017904;28;20363;-78
2023/05/21 04:34:21;;;;;;;8.60;5.38;;;14.70;99.90;;;;;;5035672;28;20028;-78
2023/05/21 04:36:47;;;;;;;9.88;5.70;;;14.70;99.90;;;;;;5017799;28;20133;-78
2023/05/21 04:39:13;;;;;;;10.57;5.97;;;14.80;99.90;;;;;;5035386;28;20041;-81
2023/05/21 04:41:39;;;;;;;10.10;5.80;;;14.80;99.90;;;;;;5035284;28;20395;-77
2023/05/21 04:44:08;;;;;;;9.70;6.10;;;14.80;99.90;;;;;;5035250;28;20029;-81
2023/05/21 04:46:34;;;;;;;9.98;5.35;;;14.80;99.90;;;;;;5035174;28;20030;-78
2023/05/21 04:49:03;;;;;;;6.38;5.78;;;14.90;99.90;;;;;;5017459;28;20040;-78
2023/05/21 04:51:30;;;;;;;7.35;5.45;;;14.90;99.90;;;;;;5035080;28;20163;-81
2023/05/21 04:53:57;;;;;;;12.82;6.35;;;14.80;99.90;;;;;;5017249;28;20036;-77
2023/05/21 04:56:25;;;;;;;6.97;5.97;;;14.80;99.90;;;;;;5034961;28;20026;-77
2023/05/21 04:58:54;;;;;;;9.38;5.75;;;14.80;99.90;;;;;;5035345;28;20029;-78
2023/05/21 05:01:25;;;;;;;8.35;5.18;;;14.80;99.90;;;;;;5017271;28;20120;-78
2023/05/21 05:03:51;;;;;;;8.73;6.47;;;14.80;99.90;;;;;;5035241;28;20482;-78
2023/05/21 05:06:17;;;;;;;15.20;5.90;;;14.90;99.90;;;;;;5034945;28;20022;-77
2023/05/21 05:08:45;;;;;;;6.65;5.72;;;15.00;99.90;;;;;;5018280;28;20021;-81
2023/05/21 05:11:11;;;;;;;7.82;5.55;;;15.10;99.90;;;;;;5054546;28;20052;-81
2023/05/21 05:13:38;;;;;;;7.93;6.00;;;15.20;99.90;;;;;;5054726;28;20029;-81
2023/05/21 05:16:04;;;;;;;6.43;5.70;;;15.30;99.90;;;;;;5036732;28;20102;-81
2023/05/21 05:18:30;;;;;;;7.47;4.88;;;15.50;98.80;;;;;;5053873;28;20490;-77
2023/05/21 05:20:56;;;;;;;7.25;5.45;;;15.80;97.30;;;;;;5053878;28;20045;-77
2023/05/21 05:23:21;;;;;;;7.32;5.13;;;15.90;93.60;;;;;;5053318;28;20041;-77
2023/05/21 05:25:47;;;;;;;6.78;5.70;;;16.00;89.20;;;;;;5034437;28;20029;-77
2023/05/21 05:28:13;;;;;;;7.88;5.88;;;16.20;89.30;;;;;;5054192;28;20031;-81
2023/05/21 05:30:38;;;;;;;6.20;5.22;;;16.20;87.00;;;;;;5054118;28;20029;-81
2023/05/21 05:33:04;;;;;;;7.28;4.75;;;16.20;85.80;;;;;;5054091;28;20097;-77
2023/05/21 05:35:30;;;;;;;5.50;4.97;;;16.30;85.70;;;;;;5036295;28;20021;-77
2023/05/21 05:37:55;;;;;;;6.88;4.82;;;16.30;86.60;;;;;;5036120;28;20013;-77
2023/05/21 05:40:21;;;;;;;7.70;5.72;;;16.30;84.70;;;;;;5036002;28;20399;-77
2023/05/21 05:42:48;;;;;;;7.90;4.90;;;16.40;83.10;;;;;;5053757;28;20029;-77
2023/05/21 05:45:14;;;;;;;6.68;4.95;;;16.40;83.80;;;;;;5054122;28;20095;-77
2023/05/21 05:47:40;;;;;;;5.30;4.78;;;16.50;84.40;;;;;;5053728;28;20064;-81
2023/05/21 05:50:06;;;;;;;6.55;5.00;;;16.50;82.00;;;;;;5053608;28;20091;-77
2023/05/21 05:52:32;;;;;;;5.75;5.07;;;16.60;82.20;;;;;;5035368;28;20024;-78
2023/05/21 05:54:57;;;;;;;6.28;5.20;;;16.70;81.70;;;;;;5052836;28;20079;-81
2023/05/21 05:57:23;;;;;;;5.95;5.28;;;16.80;82.90;;;;;;5053183;28;20023;-77
2023/05/21 05:59:48;;;;;;;10.57;4.50;;;16.80;80.50;;;;;;5035074;28;20059;-77
2023/05/21 06:02:14;;;;;;;6.13;4.85;;;17.00;80.60;;;;;;5053648;28;20017;-81
2023/05/21 06:04:39;;;;;;;8.32;4.88;;;17.00;80.30;;;;;;5053540;28;20108;-80
2023/05/21 06:07:05;;;;;;;6.53;5.10;;;17.20;79.20;;;;;;5035705;28;20025;-81
2023/05/21 06:09:31;;;;;;;7.50;5.03;;;17.20;80.30;;;;;;5035840;28;20433;-81
2023/05/21 06:11:56;;;;;;;6.28;4.43;;;17.40;82.30;;;;;;5052865;28;20025;-79
2023/05/21 06:14:22;;;;;;;8.40;4.63;;;17.60;80.80;;;;;;5052827;28;20017;-78
2023/05/21 06:16:47;;;;;;;8.20;4.68;;;17.70;80.10;;;;;;5055556;28;20024;-82
2023/05/21 06:19:13;;;;;;;7.00;5.38;;;17.90;79.70;;;;;;5052708;28;20048;-77
2023/05/21 06:21:39;;;;;;;6.35;4.72;;;18.00;76.70;;;;;;5050067;28;20070;-78
2023/05/21 06:24:05;;;;;;;6.75;4.90;;;18.10;76.00;;;;;;5054499;28;20049;-77
2023/05/21 06:26:30;;;;;;;10.40;4.53;;;18.10;76.60;;;;;;5044755;28;20506;-78
2023/05/21 06:28:56;;;;;;;11.43;4.88;;;18.20;76.20;;;;;;5052896;28;20021;-81
2023/05/21 06:31:21;;;;;;;6.18;4.70;;;18.30;75.60;;;;;;5054878;28;20021;-81
2023/05/21 06:33:48;;;;;;;4.60;4.20;;;18.40;76.60;;;;;;5034680;28;20025;-77
2023/05/21 06:36:14;;;;;;;6.60;4.93;;;18.50;75.20;;;;;;5034417;28;20037;-77
2023/05/21 06:38:41;;;;;;;10.63;4.88;;;18.50;76.20;;;;;;5034365;28;20013;-77
2023/05/21 06:41:07;;;;;;;6.10;5.22;;;18.60;74.50;;;;;;5052368;28;20029;-77
2023/05/21 06:43:32;;;;;;;9.75;5.00;;;18.60;72.90;;;;;;5034655;28;20024;-78
2023/05/21 06:45:58;;;;;;;7.93;4.55;;;18.70;73.70;;;;;;5035198;28;20029;-81
2023/05/21 06:48:23;;;;;;;7.88;5.15;;;18.70;73.10;;;;;;5034989;28;20029;-78
2023/05/21 06:50:49;;;;;;;6.65;4.65;;;18.80;73.10;;;;;;5035138;28;20111;-81
2023/05/21 06:53:15;;;;;;;8.60;4.65;;;18.90;72.70;;;;;;5054166;28;20029;-82
2023/05/21 06:55:43;;;;;;;7.35;4.68;;;19.00;72.90;;;;;;5035824;28;20060;-78
2023/05/21 06:58:09;;;;;;;6.95;4.70;;;19.20;73.80;;;;;;5046509;28;20024;-77
2023/05/21 07:00:35;;;;;;;10.30;4.90;;;19.30;72.40;;;;;;5055035;28;20066;-83
2023/05/21 07:03:01;;;;;;;11.70;4.88;;;19.40;72.30;;;;;;5051260;28;20021;-81
2023/05/21 07:05:26;;;;;;;8.52;4.45;;;19.50;71.00;;;;;;5035285;28;20446;-74
2023/05/21 07:07:52;;;;;;;8.95;4.57;;;19.60;71.40;;;;;;5034741;28;20029;-79
2023/05/21 07:10:18;;;;;;;7.60;4.10;;;19.60;71.00;;;;;;5055066;28;20104;-77
2023/05/21 07:12:44;;;;;;;8.85;4.32;;;19.70;70.70;;;;;;5054284;28;20029;-83
2023/05/21 07:15:10;;;;;;;7.18;4.60;;;19.70;70.50;;;;;;5071582;28;20032;-82
2023/05/21 07:17:36;;;;;;;6.35;4.47;;;19.70;69.90;;;;;;5038371;28;20072;-82
2023/05/21 07:20:06;;;;;;;7.32;4.45;;;19.90;70.80;;;;;;5032103;28;20059;-77
2023/05/21 07:22:32;;;;;;;8.15;4.35;;;19.90;68.80;;;;;;5014817;28;20025;-82
2023/05/21 07:24:57;;;;;;;5.65;3.95;;;20.00;68.30;;;;;;5014779;28;20028;-84
2023/05/21 07:27:23;;;;;;;4.80;4.22;;;20.10;68.30;;;;;;5031831;28;20160;-83
2023/05/21 07:29:48;;;;;;;6.80;3.88;;;20.20;67.20;;;;;;5032386;28;20391;-77
2023/05/21 07:32:14;;;;;;;7.28;4.43;;;20.30;67.30;;;;;;5032504;28;20390;-76
2023/05/21 07:34:39;;;;;;;4.20;3.80;;;20.50;67.90;;;;;;5014956;28;20026;-75
2023/05/21 07:37:05;;;;;;;5.00;4.28;;;20.70;68.80;;;;;;5014915;28;20116;-75
2023/05/21 07:39:31;;;;;;;7.43;4.18;;;20.80;69.30;;;;;;5030971;28;20460;-76
2023/05/21 07:41:56;;;;;;;10.52;4.50;;;20.70;68.10;;;;;;4999228;28;20068;-81
2023/05/21 07:44:23;;;;;;;9.60;4.60;;;20.70;67.70;;;;;;5015148;28;20040;-75
2023/05/21 07:46:48;;;;;;;6.35;4.22;;;20.80;68.40;;;;;;5010306;28;20497;-81
2023/05/21 07:49:15;;;;;;;5.43;3.70;;;20.70;67.40;;;;;;5010772;28;20140;-75
2023/05/21 07:51:41;;;;;;;10.40;4.40;;;20.80;67.90;;;;;;5014676;28;20025;-76
2023/05/21 07:54:07;;;;;;;5.43;3.65;;;20.80;66.40;;;;;;5014634;28;20088;-76
2023/05/21 07:56:33;;;;;;;6.28;3.97;;;20.90;63.80;;;;;;5015651;28;20539;-81
2023/05/21 07:58:58;;;;;;;6.97;4.40;;;20.90;65.90;;;;;;5016073;28;20039;-75
2023/05/21 08:01:24;;;;;;;7.07;4.05;;;21.10;67.80;;;;;;5017317;28;20116;-83
2023/05/21 08:03:49;;;;;;;7.22;3.65;;;21.00;65.80;;;;;;5034523;28;20505;-77
2023/05/21 08:06:15;;;;;;;5.88;3.70;;;21.00;66.00;;;;;;5017305;28;20109;-79
2023/05/21 08:08:40;;;;;;;6.65;4.53;;;21.00;66.50;;;;;;5017310;28;20026;-76
2023/05/21 08:11:06;;;;;;;6.57;3.65;;;21.20;67.00;;;;;;5034459;28;20462;-75
2023/05/21 08:13:32;;;;;;;7.75;4.07;;;21.20;65.90;;;;;;5034959;28;20018;-81
2023/05/21 08:15:57;;;;;;;5.35;3.70;;;21.30;67.10;;;;;;5034502;28;20036;-82
2023/05/21 08:18:24;;;;;;;7.40;3.72;;;21.40;65.60;;;;;;5043513;28;20099;-76
2023/05/21 08:20:50;;;;;;;10.95;4.70;;;21.50;66.10;;;;;;5036454;28;20513;-83
2023/05/21 08:23:16;;;;;;;5.32;3.83;;;21.60;64.10;;;;;;5054853;28;20017;-82
2023/05/21 08:25:41;;;;;;;5.63;3.55;;;21.60;64.10;;;;;;5036702;28;20497;-76
2023/05/21 08:28:07;;;;;;;5.60;3.25;;;21.70;64.40;;;;;;5036240;28;20699;-76
2023/05/21 08:30:32;;;;;;;6.63;3.80;;;21.50;62.40;;;;;;5054012;28;20496;-76
2023/05/21 08:32:58;;;;;;;8.73;3.45;;;21.50;61.30;;;;;;5016142;28;20024;-76
2023/05/21 08:35:24;;;;;;;6.53;3.75;;;21.60;60.30;;;;;;5034409;28;20037;-76
2023/05/21 08:37:50;;;;;;;8.60;4.70;;;21.50;62.90;;;;;;5034344;28;20018;-83
2023/05/21 08:40:15;;;;;;;6.22;3.53;;;21.70;62.30;;;;;;5016385;28;20045;-76
2023/05/21 08:42:45;;;;;;;4.93;3.53;;;21.60;62.60;;;;;;5016809;28;20018;-82
2023/05/21 08:45:13;;;;;;;6.47;3.47;;;21.70;61.70;;;;;;5034105;28;20142;-82
2023/05/21 08:47:42;;;;;;;4.03;2.90;;;21.90;61.40;;;;;;5034041;28;20024;-76
2023/05/21 08:50:10;;;;;;;5.32;3.33;;;21.90;59.90;;;;;;5016228;28;20107;-76
2023/05/21 08:52:35;;;;;;;11.98;3.88;;;21.90;59.60;;;;;;5016461;28;20017;-76
2023/05/21 08:55:03;;;;;;;4.53;3.80;;;22.10;60.00;;;;;;5016142;28;20022;-76
2023/05/21 08:57:30;;;;;;;6.72;3.33;;;22.10;59.20;;;;;;5016529;28;20463;-82
2023/05/21 08:59:56;;;;;;;7.85;2.90;;;22.20;57.70;;;;;;5051451;28;20090;-81
2023/05/21 09:02:23;;;;;;;3.50;3.05;;;22.10;58.70;;;;;;5054079;28;20031;-82
2023/05/21 09:04:50;;;;;;;3.30;2.53;;;22.10;58.10;;;;;;5052079;28;20018;-83
2023/05/21 09:07:16;;;;;;;5.93;2.80;;;22.20;57.40;;;;;;5052249;28;20037;-76
2023/05/21 09:09:52;;;;;;;5.80;3.25;;;22.20;56.20;;;;;;5036097;28;20013;-76
2023/05/21 09:12:18;;;;;;;4.30;2.70;;;22.10;56.50;;;;;;5052583;28;20086;-76
2023/05/21 09:14:45;;;;;;;6.60;3.80;;;22.10;56.80;;;;;;5053781;28;20100;-82
2023/05/21 09:17:13;;;;;;;4.55;3.13;;;22.20;57.50;;;;;;5035426;28;20057;-82
2023/05/21 09:20:13;;;;;;;5.88;3.22;;;22.20;57.30;;;;;;5051840;28;20056;-82
2023/05/21 09:22:43;;;;;;;7.63;2.90;;;22.40;58.20;;;;;;5053798;28;20025;-81
2023/05/21 09:25:10;;;;;;;5.28;2.75;;;22.60;57.70;;;;;;5035506;28;20066;-76
2023/05/21 09:27:36;;;;;;;6.47;3.25;;;22.50;57.50;;;;;;5035662;28;20013;-75
2023/05/21 09:30:11;;;;;;;3.65;3.08;;;22.40;57.00;;;;;;5053027;28;20082;-83
2023/05/21 09:32:38;;;;;;;3.40;2.50;;;22.40;56.20;;;;;;5052326;28;20048;-79
2023/05/21 09:35:12;;;;;;;5.70;3.40;;;22.40;55.60;;;;;;5055303;28;20122;-82
2023/05/21 09:37:44;;;;;;;5.68;3.13;;;22.50;56.90;;;;;;5055511;28;20090;-76
2023/05/21 09:40:14;;;;;;;3.22;2.70;;;22.60;56.50;;;;;;5073202;28;20367;-76
2023/05/21 09:42:42;;;;;;;3.20;2.88;;;22.60;53.90;;;;;;5073114;28;20128;-76
2023/05/21 09:45:09;;;;;;;5.32;2.70;;;22.50;54.50;;;;;;5073054;28;20031;-83
2023/05/21 09:47:45;;;;;;;5.95;2.83;;;22.60;55.10;;;;;;5072464;28;20036;-76
2023/05/21 09:50:34;;;;;;;6.95;3.30;;;22.70;55.70;;;;;;5073116;28;20028;-82
2023/05/21 09:53:00;;;;;;;6.70;3.08;;;22.70;54.70;;;;;;5072987;28;20017;-77
2023/05/21 09:55:27;;;;;;;3.45;3.05;;;22.80;56.00;;;;;;5055298;28;20028;-81
2023/05/21 09:57:52;;;;;;;5.18;2.78;;;22.80;54.50;;;;;;5071032;28;20040;-83
2023/05/21 10:00:27;;;;;;;7.85;3.53;;;22.80;54.20;;;;;;5052916;28;20398;-82
2023/05/21 10:03:00;;;;;;;5.53;2.85;;;22.70;54.90;;;;;;5034028;28;20036;-76
2023/05/21 10:05:28;;;;;;;4.18;3.05;;;22.80;54.90;;;;;;5035094;28;20017;-75
2023/05/21 10:07:58;;;;;;;7.97;2.72;;;22.90;55.60;;;;;;5034421;28;20079;-82
2023/05/21 10:10:26;;;;;;;5.13;3.00;;;22.90;54.90;;;;;;5052961;28;20033;-75
2023/05/21 10:13:02;;;;;;;5.45;3.05;;;22.90;55.80;;;;;;5051709;28;20395;-81
2023/05/21 10:15:32;;;;;;;5.68;3.35;;;22.90;55.00;;;;;;5053145;28;20083;-81
2023/05/21 10:17:59;;;;;;;3.80;3.08;;;22.80;55.20;;;;;;5066836;28;20102;-75
2023/05/21 10:20:25;;;;;;;7.40;3.05;;;22.80;56.20;;;;;;5052617;28;20037;-81
2023/05/21 10:22:52;;;;;;;4.05;3.40;;;22.90;56.50;;;;;;5035189;28;20043;-76
2023/05/21 10:25:19;;;;;;;4.47;2.97;;;22.90;55.70;;;;;;5053620;28;20029;-75
2023/05/21 10:27:45;;;;;;;3.83;2.85;;;23.00;54.70;;;;;;5034226;28;20033;-76
2023/05/21 10:30:11;;;;;;;3.17;2.63;;;23.00;55.80;;;;;;5050851;28;20147;-75
2023/05/21 10:32:39;;;;;;;6.40;3.42;;;23.00;56.00;;;;;;5069252;28;20107;-76
2023/05/21 10:35:07;;;;;;;4.70;3.13;;;23.10;56.90;;;;;;5054259;28;20386;-75
2023/05/21 10:37:33;;;;;;;9.02;2.90;;;22.90;54.50;;;;;;5054090;28;20037;-76
2023/05/21 10:39:59;;;;;;;5.00;2.63;;;22.90;55.60;;;;;;5072124;28;20047;-81
2023/05/21 10:42:30;;;;;;;4.25;3.22;;;22.80;54.80;;;;;;5072288;28;20039;-81
2023/05/21 10:45:04;;;;;;;5.35;2.45;;;22.90;55.20;;;;;;5072028;28;20370;-75
2023/05/21 10:47:36;;;;;;;3.85;2.85;;;22.90;54.40;;;;;;5053689;28;20060;-82
2023/05/21 10:50:11;;;;;;;4.28;3.50;;;22.90;54.50;;;;;;5054212;28;20363;-82
2023/05/21 10:52:55;;;;;;;6.60;3.08;;;22.80;55.20;;;;;;5054235;28;20381;-78
2023/05/21 10:55:33;;;;;;;6.35;3.33;;;23.00;55.60;;;;;;5054458;28;20441;-83
2023/05/21 10:58:17;;;;;;;4.07;2.60;;;23.00;55.00;;;;;;5069513;28;20046;-78
2023/05/21 11:00:46;;;;;;;3.67;2.67;;;23.00;55.10;;;;;;5042881;28;20040;-83
2023/05/21 11:03:13;;;;;;;3.65;3.20;;;22.80;54.70;;;;;;5041690;28;20122;-77
2023/05/21 11:05:41;;;;;;;5.38;3.08;;;22.80;55.40;;;;;;5047455;28;20072;-77
2023/05/21 11:08:30;;;;;;;9.35;3.75;;;22.80;54.70;;;;;;5044184;28;20038;-77
2023/05/21 11:10:57;;;;;;;4.95;3.45;;;23.00;54.40;;;;;;5022850;28;20017;-77
2023/05/21 11:13:24;;;;;;;6.15;2.92;;;23.10;55.20;;;;;;5040313;28;20029;-78
2023/05/21 11:16:03;;;;;;;3.63;3.10;;;23.00;54.00;;;;;;5050365;28;20029;-78
2023/05/21 11:18:38;;;;;;;6.10;2.92;;;23.00;54.30;;;;;;5039469;28;20212;-77
2023/05/21 11:21:12;;;;;;;6.07;3.33;;;23.00;54.50;;;;;;5030366;28;20081;-77
2023/05/21 11:23:50;;;;;;;4.72;3.05;;;22.90;54.40;;;;;;5014472;28;20060;-77
2023/05/21 11:26:24;;;;;;;5.65;3.42;;;23.00;54.90;;;;;;5016935;28;20126;-77
2023/05/21 11:29:05;;;;;;;4.80;3.45;;;23.10;54.90;;;;;;5016567;28;20482;-78
2023/05/21 11:31:38;;;;;;;5.15;3.78;;;23.10;54.50;;;;;;5031009;28;20025;-78
2023/05/21 11:34:09;;;;;;;3.88;2.75;;;23.10;53.40;;;;;;5034763;28;20096;-77
2023/05/21 11:36:40;;;;;;;4.33;3.63;;;23.10;53.80;;;;;;5017523;28;20494;-77
2023/05/21 11:39:12;;;;;;;8.00;3.30;;;23.20;54.60;;;;;;5035006;28;20033;-77
2023/05/21 11:41:57;;;;;;;4.35;3.00;;;23.30;55.30;;;;;;5016843;28;20434;-77
2023/05/21 11:44:42;;;;;;;3.63;3.33;;;23.20;52.50;;;;;;5033444;28;20066;-77
2023/05/21 11:47:18;;;;;;;4.75;3.47;;;23.30;54.40;;;;;;5032046;28;20029;-78
2023/05/21 11:49:45;;;;;;;4.97;3.08;;;23.40;55.00;;;;;;5015303;28;20025;-79
2023/05/21 11:52:12;;;;;;;5.43;3.58;;;23.50;55.60;;;;;;5013612;28;20026;-78
2023/05/21 11:54:58;;;;;;;5.22;3.70;;;23.40;53.70;;;;;;4997501;28;20014;-78
2023/05/21 11:57:30;;;;;;;5.95;3.00;;;23.30;55.40;;;;;;5008296;28;20075;-81
2023/05/21 12:00:00;;;;;;;6.97;3.40;;;23.20;56.10;;;;;;5033040;28;20053;-78
2023/05/21 12:02:32;;;;;;;5.63;3.30;;;23.30;56.20;;;;;;5019003;28;20021;-77
2023/05/21 12:04:58;;;;;;;4.93;3.08;;;23.30;56.60;;;;;;5032754;28;20083;-80
2023/05/21 12:07:29;;;;;;;5.15;3.33;;;23.30;55.90;;;;;;5016514;28;20032;-79
2023/05/21 12:09:56;;;;;;;3.67;3.17;;;23.30;56.30;;;;;;5034481;28;20105;-78
2023/05/21 12:12:24;;;;;;;3.97;3.17;;;23.30;56.20;;;;;;5034160;28;20025;-78
2023/05/21 12:14:54;;;;;;;5.47;3.17;;;23.30;56.40;;;;;;5016692;28;20480;-78
2023/05/21 12:17:23;;;;;;;3.80;3.03;;;23.20;56.40;;;;;;5016433;28;20068;-78
2023/05/21 12:19:55;;;;;;;3.92;3.28;;;23.30;55.80;;;;;;5052767;28;20025;-78
2023/05/21 12:22:23;;;;;;;5.85;3.25;;;23.30;55.30;;;;;;5053241;28;20426;-82
2023/05/21 12:24:49;;;;;;;4.32;2.83;;;23.30;56.40;;;;;;5053435;28;20398;-82
2023/05/21 12:27:15;;;;;;;5.00;2.72;;;23.30;56.80;;;;;;5053605;28;20025;-82
2023/05/21 12:29:50;;;;;;;4.30;3.20;;;23.20;56.50;;;;;;5053693;28;20390;-82
2023/05/21 12:32:16;;;;;;;5.95;3.08;;;23.30;57.20;;;;;;5034747;28;20482;-81
2023/05/21 12:34:47;;;;;;;6.30;3.17;;;23.30;56.40;;;;;;5051564;28;20060;-82
2023/05/21 12:37:16;;;;;;;5.35;3.40;;;23.30;55.80;;;;;;5034488;28;20017;-87
2023/05/21 12:39:46;;;;;;;3.33;2.95;;;23.40;56.40;;;;;;5051777;28;20075;-82
2023/05/21 12:42:13;;;;;;;5.13;2.85;;;23.40;56.10;;;;;;5052040;28;20017;-81
2023/05/21 12:44:48;;;;;;;4.93;3.55;;;23.30;55.10;;;;;;5053233;28;20037;-82
2023/05/21 12:47:13;;;;;;;5.47;4.32;;;23.20;55.90;;;;;;5051438;28;20036;-81